In Rescue
 
Open Full Screen Window  High Contrast Mode
Wind Gusting 00 knots
04
September 19, 2019 5:50 PM EDT
Weather Information
Wind Direction
  130 °
Wind Speed
  04 kt (5 mph)
Wind Gust
  00 kt (0 mph)
Altimeter
30.11 in
Visibility
10 SM
Temperature
26° C
79° F
Dewpoint
06° C
43° F
Humidity
28%
Sky Condition
Clear
VFR

METAR KOEB 192150Z AUTO 13004KT 10SM CLR 26/06 A3011 RMK AO2 T02570059

FAA Disclaimer: The data displayed is for advisory purposes only and is not to be used for flight planning or operations.